createdAt,value
2023-12-14T00:05:23.039Z,62.10
2023-12-14T00:15:24.552Z,61.90
2023-12-14T00:25:26.044Z,61.90
2023-12-14T00:35:27.468Z,61.80
2023-12-14T00:45:28.893Z,61.80
2023-12-14T00:55:30.407Z,61.60
2023-12-14T01:05:31.943Z,61.80
2023-12-14T01:15:33.436Z,61.60
2023-12-14T01:25:34.959Z,61.70
2023-12-14T01:35:36.417Z,61.60
2023-12-14T01:45:37.907Z,61.30
2023-12-14T01:55:39.352Z,61.50
2023-12-14T02:05:40.833Z,61.30
2023-12-14T02:15:42.330Z,61.50
2023-12-14T02:25:43.806Z,61.60
2023-12-14T02:35:45.266Z,61.20
2023-12-14T02:45:46.739Z,61.20
2023-12-14T02:55:48.232Z,61.20
2023-12-14T03:05:49.787Z,61.10
2023-12-14T03:15:51.250Z,61.00
2023-12-14T03:25:52.705Z,61.00
2023-12-14T03:35:54.199Z,61.00
2023-12-14T03:45:55.629Z,60.80
2023-12-14T03:55:57.080Z,60.90
2023-12-14T04:05:58.588Z,60.90
2023-12-14T04:16:00.098Z,60.80
2023-12-14T04:26:01.672Z,61.40
2023-12-14T04:36:03.135Z,60.70
2023-12-14T04:46:04.673Z,60.70
2023-12-14T04:56:06.263Z,60.70
2023-12-14T05:06:07.729Z,60.20
2023-12-14T05:16:09.164Z,60.60
2023-12-14T05:26:10.736Z,60.60
2023-12-14T05:36:12.400Z,60.60
2023-12-14T05:46:13.977Z,60.60
2023-12-14T05:56:15.505Z,60.60
2023-12-14T06:06:17.161Z,60.50
2023-12-14T06:16:18.718Z,60.70
2023-12-14T06:26:20.176Z,60.70
2023-12-14T06:36:21.702Z,59.80
2023-12-14T06:46:23.183Z,58.70
2023-12-14T06:56:24.641Z,58.20
2023-12-14T07:06:26.108Z,58.30
2023-12-14T07:16:27.556Z,56.90
2023-12-14T07:26:29.120Z,53.20
2023-12-14T07:42:50.497Z,47.80
2023-12-14T07:52:52.097Z,50.10
2023-12-14T08:02:53.574Z,50.20
2023-12-14T08:12:55.047Z,50.80
2023-12-14T08:22:56.612Z,51.90
2023-12-14T08:32:58.119Z,51.20
2023-12-14T08:42:59.588Z,51.00
2023-12-14T08:53:01.188Z,49.80
2023-12-14T09:03:02.879Z,49.40
2023-12-14T09:13:04.464Z,49.90
2023-12-14T09:23:06.010Z,50.20
2023-12-14T09:33:07.623Z,50.30
2023-12-14T09:43:09.190Z,50.50
2023-12-14T09:53:10.752Z,50.50
2023-12-14T10:03:12.321Z,50.60
2023-12-14T10:13:16.875Z,50.90
2023-12-14T10:23:22.183Z,51.00
2023-12-14T10:33:23.835Z,51.70
2023-12-14T10:43:47.309Z,51.50
2023-12-14T10:53:47.016Z,51.30
2023-12-14T11:21:37.403Z,51.80
2023-12-14T11:31:38.974Z,51.90
2023-12-14T11:41:43.838Z,51.70
2023-12-14T11:51:45.323Z,52.40
2023-12-14T12:01:46.810Z,51.60
2023-12-14T12:11:48.485Z,51.70
2023-12-14T12:21:49.973Z,51.80
2023-12-14T12:31:51.501Z,51.90
2023-12-14T12:41:53.118Z,52.10
2023-12-14T12:51:57.028Z,52.20
2023-12-14T13:01:58.789Z,52.20
2023-12-14T13:22:39.854Z,52.40
2023-12-14T13:32:51.243Z,52.20
2023-12-14T13:42:59.997Z,52.30
2023-12-14T14:02:32.878Z,50.60
2023-12-14T14:12:44.831Z,50.50
2023-12-14T14:22:46.339Z,50.90
2023-12-14T14:32:47.880Z,51.40
2023-12-14T14:42:49.359Z,51.30
2023-12-14T14:52:50.845Z,51.40
2023-12-14T15:02:52.320Z,51.40
2023-12-14T15:12:53.801Z,50.90
2023-12-14T15:22:55.271Z,50.60
2023-12-14T15:32:56.763Z,50.70
2023-12-14T15:42:58.277Z,51.00
2023-12-14T15:52:59.798Z,51.20
2023-12-14T16:03:01.363Z,51.00
2023-12-14T16:13:02.917Z,51.10
2023-12-14T16:23:04.379Z,51.30
2023-12-14T16:33:05.946Z,51.40
2023-12-14T16:43:07.462Z,51.70
2023-12-14T16:53:11.278Z,51.70
2023-12-14T17:03:13.245Z,52.10
2023-12-14T17:13:14.845Z,51.90
2023-12-14T17:23:16.363Z,51.90
2023-12-14T17:33:18.029Z,52.00
2023-12-14T17:43:19.575Z,52.60
2023-12-14T17:53:21.071Z,52.40
2023-12-14T18:03:22.545Z,52.60
2023-12-14T18:13:24.036Z,52.70
2023-12-14T18:23:25.598Z,52.90
2023-12-14T18:33:27.137Z,52.80
2023-12-14T18:43:28.588Z,52.90
2023-12-14T18:53:30.161Z,52.70
2023-12-14T19:03:31.689Z,52.90
2023-12-14T19:13:33.206Z,52.80
2023-12-14T19:23:34.668Z,57.20
2023-12-14T19:33:36.161Z,57.40
2023-12-14T19:43:37.630Z,57.50
2023-12-14T19:53:39.126Z,57.40
2023-12-14T20:03:40.592Z,57.50
2023-12-14T20:13:42.079Z,57.50
2023-12-14T20:23:43.540Z,57.60
2023-12-14T20:33:45.017Z,57.70
2023-12-14T20:43:46.484Z,58.00
2023-12-14T20:53:47.957Z,58.20
2023-12-14T21:03:49.461Z,58.50
2023-12-14T21:13:51.017Z,58.60
2023-12-14T21:23:52.551Z,58.80
2023-12-14T21:33:54.120Z,58.90
2023-12-14T21:43:55.659Z,58.80
2023-12-14T21:53:57.143Z,59.00
2023-12-14T22:03:58.589Z,59.00
2023-12-14T22:14:00.093Z,59.00
2023-12-14T22:24:01.567Z,59.10
2023-12-14T22:34:03.049Z,59.10
2023-12-14T22:44:04.590Z,59.10
2023-12-14T22:54:06.127Z,59.10
2023-12-14T23:04:07.631Z,59.20
2023-12-14T23:14:09.081Z,59.10
2023-12-14T23:24:10.549Z,59.20
2023-12-14T23:34:12.072Z,59.20
2023-12-14T23:44:13.660Z,59.20
2023-12-14T23:54:15.156Z,59.20
